Lanark, Illinois
Current Conditions -  °F | °C
As of 1:35 PM on Thursday 27 Nov 2014 (Local Time) from KSFY Reporting Station
Broken Clouds Broken Clouds  
Wind Chill: -10°   Ceiling: 3100
Heat Index: -5°   Visibility: 10mi
Dew Point: -11°   Wind: 7mph
Humidity: 65%   Direction: 310°NW
Pressure: 30.4"   Gusts: NA
Location:  42.1°N, 89.83°W
Report Text: KSFY 271935Z AUTO 31006KT 10SM SCT025 BKN031 M05/M11 A3040 RMK AO2 T10511108
Loading
Personal Weather Stations






























Interactive Weather Map New forecast layout! Learn more

10-Day Weather Forecast

Advertisements
Track Severe Weather on mobile